createdAt,value
2022-11-29T00:08:38.592Z,0.29
2022-11-29T00:23:38.697Z,0.15
2022-11-29T00:38:38.632Z,0.83
2022-11-29T00:53:38.639Z,0.61
2022-11-29T01:08:38.791Z,1.19
2022-11-29T01:23:38.875Z,0.79
2022-11-29T01:38:38.738Z,0.26
2022-11-29T01:53:38.867Z,0.08
2022-11-29T02:08:38.982Z,1.06
2022-11-29T02:23:38.877Z,1.66
2022-11-29T02:38:39.030Z,1.70
2022-11-29T02:53:38.965Z,1.01
2022-11-29T03:08:39.055Z,1.09
2022-11-29T03:23:39.071Z,1.01
2022-11-29T03:38:39.002Z,0.36
2022-11-29T03:53:39.182Z,0.74
2022-11-29T04:08:39.211Z,1.04
2022-11-29T04:23:39.289Z,1.28
2022-11-29T04:38:39.148Z,0.39
2022-11-29T04:53:39.300Z,0.10
2022-11-29T05:08:39.228Z,0.01
2022-11-29T05:23:39.285Z,0.00
2022-11-29T05:38:39.350Z,0.10
2022-11-29T05:53:39.538Z,0.80
2022-11-29T06:08:39.359Z,0.56
2022-11-29T06:23:39.481Z,0.57
2022-11-29T06:38:39.548Z,0.66
2022-11-29T06:53:39.571Z,0.24
2022-11-29T07:08:39.503Z,0.00
2022-11-29T07:23:39.637Z,0.00
2022-11-29T07:38:39.631Z,0.00
2022-11-29T07:53:39.746Z,0.00
2022-11-29T08:08:43.901Z,0.00
2022-11-29T08:23:39.765Z,0.00
2022-11-29T08:38:39.716Z,0.00
2022-11-29T08:53:40.281Z,0.05
2022-11-29T09:08:40.417Z,0.53
2022-11-29T09:23:40.047Z,1.24
2022-11-29T09:38:39.989Z,0.30
2022-11-29T09:53:39.948Z,0.38
2022-11-29T10:08:39.988Z,0.29
2022-11-29T10:23:39.956Z,0.12
2022-11-29T10:38:40.009Z,0.17
2022-11-29T10:53:40.063Z,0.87
2022-11-29T11:08:40.053Z,1.98
2022-11-29T11:23:42.762Z,1.70
2022-11-29T11:38:40.070Z,1.95
2022-11-29T11:53:40.205Z,1.81
2022-11-29T12:08:40.246Z,1.48
2022-11-29T12:23:40.203Z,1.33
2022-11-29T12:38:40.419Z,0.90
2022-11-29T12:53:40.325Z,0.91
2022-11-29T13:08:40.372Z,1.41
2022-11-29T13:24:07.246Z,1.07
2022-11-29T13:38:40.415Z,0.94
2022-11-29T13:53:45.266Z,1.55
2022-11-29T14:09:16.708Z,1.14
2022-11-29T14:23:40.513Z,1.03
2022-11-29T14:38:40.386Z,1.44
2022-11-29T14:53:40.528Z,1.66
2022-11-29T15:08:40.553Z,1.66
2022-11-29T15:23:40.640Z,1.11
2022-11-29T15:38:40.777Z,1.45
2022-11-29T15:53:40.590Z,1.06
2022-11-29T16:08:40.651Z,1.08
2022-11-29T16:23:40.653Z,0.71
2022-11-29T16:38:40.727Z,1.41
2022-11-29T16:53:40.691Z,1.12
2022-11-29T17:08:40.704Z,0.63
2022-11-29T17:23:40.891Z,1.53
2022-11-29T17:38:40.913Z,1.96
2022-11-29T17:53:40.789Z,1.92
2022-11-29T18:08:40.860Z,1.78
2022-11-29T18:23:40.990Z,1.33
2022-11-29T18:38:40.991Z,0.96
2022-11-29T18:53:41.120Z,0.84
2022-11-29T19:08:41.135Z,0.64
2022-11-29T19:23:41.118Z,1.19
2022-11-29T19:38:41.100Z,1.30
2022-11-29T19:53:41.211Z,1.66
2022-11-29T20:08:41.352Z,1.62
2022-11-29T20:23:41.249Z,1.03
2022-11-29T20:38:41.273Z,1.17
2022-11-29T20:53:41.277Z,1.03
2022-11-29T21:37:56.046Z,1.17
2022-11-29T21:52:56.048Z,0.36
2022-11-29T22:07:56.078Z,0.66
2022-11-29T22:22:58.709Z,0.29
2022-11-29T22:37:56.029Z,0.28
2022-11-29T22:52:56.063Z,0.70
2022-11-29T23:07:56.113Z,0.78
2022-11-29T23:22:56.067Z,1.43
2022-11-29T23:37:56.233Z,1.70
2022-11-29T23:52:56.148Z,1.85
